sensor_id;sensor_type;location;lat;lon;timestamp;P1;durP1;ratioP1;P2;durP2;ratioP2
31680;SDS011;18281;51.364;9.566;2023-05-23T00:00:56;6.70;;;5.85;;
31680;SDS011;18281;51.364;9.566;2023-05-23T00:03:22;9.10;;;6.22;;
31680;SDS011;18281;51.364;9.566;2023-05-23T00:05:48;7.22;;;6.07;;
31680;SDS011;18281;51.364;9.566;2023-05-23T00:08:15;6.85;;;6.15;;
31680;SDS011;18281;51.364;9.566;2023-05-23T00:10:41;12.50;;;6.25;;
31680;SDS011;18281;51.364;9.566;2023-05-23T00:13:07;8.82;;;6.43;;
31680;SDS011;18281;51.364;9.566;2023-05-23T00:15:36;7.78;;;6.05;;
31680;SDS011;18281;51.364;9.566;2023-05-23T00:18:02;5.82;;;5.22;;
31680;SDS011;18281;51.364;9.566;2023-05-23T00:20:28;6.32;;;5.55;;
31680;SDS011;18281;51.364;9.566;2023-05-23T00:22:54;6.75;;;6.05;;
31680;SDS011;18281;51.364;9.566;2023-05-23T00:25:22;9.07;;;6.28;;
31680;SDS011;18281;51.364;9.566;2023-05-23T00:27:48;12.18;;;6.72;;
31680;SDS011;18281;51.364;9.566;2023-05-23T00:30:14;6.05;;;5.45;;
31680;SDS011;18281;51.364;9.566;2023-05-23T00:32:39;6.70;;;5.97;;
31680;SDS011;18281;51.364;9.566;2023-05-23T00:35:05;10.98;;;6.15;;
31680;SDS011;18281;51.364;9.566;2023-05-23T00:37:30;7.45;;;6.53;;
31680;SDS011;18281;51.364;9.566;2023-05-23T00:39:56;6.35;;;5.70;;
31680;SDS011;18281;51.364;9.566;2023-05-23T00:42:21;7.93;;;6.15;;
31680;SDS011;18281;51.364;9.566;2023-05-23T00:44:47;7.57;;;6.78;;
31680;SDS011;18281;51.364;9.566;2023-05-23T00:47:12;6.50;;;5.75;;
31680;SDS011;18281;51.364;9.566;2023-05-23T00:49:38;8.57;;;6.50;;
31680;SDS011;18281;51.364;9.566;2023-05-23T00:52:03;6.20;;;5.55;;
31680;SDS011;18281;51.364;9.566;2023-05-23T00:54:30;9.50;;;6.70;;
31680;SDS011;18281;51.364;9.566;2023-05-23T00:56:57;7.60;;;6.40;;
31680;SDS011;18281;51.364;9.566;2023-05-23T00:59:23;9.32;;;6.50;;
31680;SDS011;18281;51.364;9.566;2023-05-23T01:01:50;8.88;;;6.20;;
31680;SDS011;18281;51.364;9.566;2023-05-23T01:04:18;8.00;;;6.40;;
31680;SDS011;18281;51.364;9.566;2023-05-23T01:06:44;9.55;;;6.05;;
31680;SDS011;18281;51.364;9.566;2023-05-23T01:09:19;8.38;;;7.00;;
31680;SDS011;18281;51.364;9.566;2023-05-23T01:11:51;7.80;;;6.38;;
31680;SDS011;18281;51.364;9.566;2023-05-23T01:14:46;7.07;;;6.30;;
31680;SDS011;18281;51.364;9.566;2023-05-23T01:17:38;7.50;;;6.75;;
31680;SDS011;18281;51.364;9.566;2023-05-23T01:20:25;8.77;;;6.55;;
31680;SDS011;18281;51.364;9.566;2023-05-23T01:27:59;10.60;;;6.32;;
31680;SDS011;18281;51.364;9.566;2023-05-23T01:30:26;8.52;;;6.72;;
31680;SDS011;18281;51.364;9.566;2023-05-23T01:32:55;10.00;;;7.03;;
31680;SDS011;18281;51.364;9.566;2023-05-23T01:35:23;12.45;;;7.80;;
31680;SDS011;18281;51.364;9.566;2023-05-23T01:37:53;7.90;;;7.10;;
31680;SDS011;18281;51.364;9.566;2023-05-23T01:40:19;8.05;;;7.25;;
31680;SDS011;18281;51.364;9.566;2023-05-23T01:42:45;13.68;;;7.35;;
31680;SDS011;18281;51.364;9.566;2023-05-23T01:45:11;12.88;;;8.63;;
31680;SDS011;18281;51.364;9.566;2023-05-23T01:47:38;10.82;;;8.73;;
31680;SDS011;18281;51.364;9.566;2023-05-23T01:50:05;13.63;;;8.50;;
31680;SDS011;18281;51.364;9.566;2023-05-23T01:52:32;13.35;;;9.18;;
31680;SDS011;18281;51.364;9.566;2023-05-23T01:54:58;13.15;;;9.38;;
31680;SDS011;18281;51.364;9.566;2023-05-23T01:57:24;11.02;;;8.98;;
31680;SDS011;18281;51.364;9.566;2023-05-23T01:59:53;12.88;;;10.50;;
31680;SDS011;18281;51.364;9.566;2023-05-23T02:02:18;14.07;;;10.23;;
31680;SDS011;18281;51.364;9.566;2023-05-23T02:04:44;14.88;;;10.65;;
31680;SDS011;18281;51.364;9.566;2023-05-23T02:07:09;16.52;;;11.07;;
31680;SDS011;18281;51.364;9.566;2023-05-23T02:09:35;14.43;;;10.25;;
31680;SDS011;18281;51.364;9.566;2023-05-23T02:12:00;14.18;;;10.40;;
31680;SDS011;18281;51.364;9.566;2023-05-23T02:14:25;13.68;;;9.20;;
31680;SDS011;18281;51.364;9.566;2023-05-23T02:16:52;13.80;;;9.55;;
31680;SDS011;18281;51.364;9.566;2023-05-23T02:19:18;13.75;;;9.13;;
31680;SDS011;18281;51.364;9.566;2023-05-23T02:21:43;15.48;;;9.50;;
31680;SDS011;18281;51.364;9.566;2023-05-23T02:24:08;15.68;;;9.88;;
31680;SDS011;18281;51.364;9.566;2023-05-23T02:26:34;13.98;;;9.55;;
31680;SDS011;18281;51.364;9.566;2023-05-23T02:28:59;15.25;;;9.23;;
31680;SDS011;18281;51.364;9.566;2023-05-23T02:31:25;11.55;;;9.30;;
31680;SDS011;18281;51.364;9.566;2023-05-23T02:33:51;12.95;;;9.60;;
31680;SDS011;18281;51.364;9.566;2023-05-23T02:36:17;13.05;;;9.18;;
31680;SDS011;18281;51.364;9.566;2023-05-23T02:38:43;13.48;;;9.02;;
31680;SDS011;18281;51.364;9.566;2023-05-23T02:41:08;13.85;;;9.48;;
31680;SDS011;18281;51.364;9.566;2023-05-23T02:43:34;17.83;;;9.45;;
31680;SDS011;18281;51.364;9.566;2023-05-23T02:45:59;14.32;;;8.82;;
31680;SDS011;18281;51.364;9.566;2023-05-23T02:48:24;17.13;;;9.93;;
31680;SDS011;18281;51.364;9.566;2023-05-23T02:50:50;12.95;;;8.90;;
31680;SDS011;18281;51.364;9.566;2023-05-23T02:53:16;13.23;;;8.98;;
31680;SDS011;18281;51.364;9.566;2023-05-23T02:55:41;11.55;;;8.65;;
31680;SDS011;18281;51.364;9.566;2023-05-23T02:58:07;15.10;;;9.82;;
31680;SDS011;18281;51.364;9.566;2023-05-23T03:00:33;10.18;;;8.93;;
31680;SDS011;18281;51.364;9.566;2023-05-23T03:02:58;14.77;;;9.70;;
31680;SDS011;18281;51.364;9.566;2023-05-23T03:05:23;14.95;;;9.35;;
31680;SDS011;18281;51.364;9.566;2023-05-23T03:07:49;13.48;;;9.82;;
31680;SDS011;18281;51.364;9.566;2023-05-23T03:10:16;10.48;;;9.02;;
31680;SDS011;18281;51.364;9.566;2023-05-23T03:12:41;10.52;;;8.80;;
31680;SDS011;18281;51.364;9.566;2023-05-23T03:15:08;12.88;;;8.25;;
31680;SDS011;18281;51.364;9.566;2023-05-23T03:17:34;13.00;;;9.05;;
31680;SDS011;18281;51.364;9.566;2023-05-23T03:19:59;12.20;;;9.05;;
31680;SDS011;18281;51.364;9.566;2023-05-23T03:22:24;10.23;;;9.00;;
31680;SDS011;18281;51.364;9.566;2023-05-23T03:24:50;11.27;;;8.63;;
31680;SDS011;18281;51.364;9.566;2023-05-23T03:27:15;10.57;;;9.35;;
31680;SDS011;18281;51.364;9.566;2023-05-23T03:29:40;11.80;;;9.23;;
31680;SDS011;18281;51.364;9.566;2023-05-23T03:32:06;13.38;;;8.95;;
31680;SDS011;18281;51.364;9.566;2023-05-23T03:34:31;11.38;;;8.48;;
31680;SDS011;18281;51.364;9.566;2023-05-23T03:36:58;12.95;;;9.80;;
31680;SDS011;18281;51.364;9.566;2023-05-23T03:39:24;10.13;;;8.02;;
31680;SDS011;18281;51.364;9.566;2023-05-23T03:41:49;10.05;;;8.93;;
31680;SDS011;18281;51.364;9.566;2023-05-23T03:44:15;10.68;;;8.52;;
31680;SDS011;18281;51.364;9.566;2023-05-23T03:46:40;14.43;;;8.63;;
31680;SDS011;18281;51.364;9.566;2023-05-23T03:49:05;9.80;;;8.13;;
31680;SDS011;18281;51.364;9.566;2023-05-23T03:51:31;14.38;;;8.63;;
31680;SDS011;18281;51.364;9.566;2023-05-23T03:53:56;10.68;;;7.95;;
31680;SDS011;18281;51.364;9.566;2023-05-23T03:56:22;8.35;;;7.07;;
31680;SDS011;18281;51.364;9.566;2023-05-23T03:58:47;9.25;;;7.75;;
31680;SDS011;18281;51.364;9.566;2023-05-23T04:01:12;9.40;;;6.82;;
31680;SDS011;18281;51.364;9.566;2023-05-23T04:03:38;8.98;;;7.22;;
31680;SDS011;18281;51.364;9.566;2023-05-23T04:06:03;10.23;;;6.78;;
31680;SDS011;18281;51.364;9.566;2023-05-23T04:08:29;8.90;;;6.57;;
31680;SDS011;18281;51.364;9.566;2023-05-23T04:10:57;8.73;;;6.75;;
31680;SDS011;18281;51.364;9.566;2023-05-23T04:13:23;7.05;;;6.05;;
31680;SDS011;18281;51.364;9.566;2023-05-23T04:15:50;9.30;;;6.75;;
31680;SDS011;18281;51.364;9.566;2023-05-23T04:18:16;7.25;;;6.15;;
31680;SDS011;18281;51.364;9.566;2023-05-23T04:20:42;7.43;;;6.03;;
31680;SDS011;18281;51.364;9.566;2023-05-23T04:23:07;7.60;;;6.32;;
31680;SDS011;18281;51.364;9.566;2023-05-23T04:25:33;8.25;;;5.82;;
31680;SDS011;18281;51.364;9.566;2023-05-23T04:27:58;8.60;;;6.15;;
31680;SDS011;18281;51.364;9.566;2023-05-23T04:30:25;10.10;;;6.20;;
31680;SDS011;18281;51.364;9.566;2023-05-23T04:32:51;5.68;;;4.90;;
31680;SDS011;18281;51.364;9.566;2023-05-23T04:35:17;7.03;;;5.75;;
31680;SDS011;18281;51.364;9.566;2023-05-23T04:37:43;8.77;;;5.55;;
31680;SDS011;18281;51.364;9.566;2023-05-23T04:40:09;6.10;;;5.10;;
31680;SDS011;18281;51.364;9.566;2023-05-23T04:42:35;6.60;;;6.00;;
31680;SDS011;18281;51.364;9.566;2023-05-23T04:45:00;9.27;;;5.45;;
31680;SDS011;18281;51.364;9.566;2023-05-23T04:47:27;6.82;;;5.50;;
31680;SDS011;18281;51.364;9.566;2023-05-23T04:49:56;6.90;;;5.75;;
31680;SDS011;18281;51.364;9.566;2023-05-23T04:52:21;5.90;;;5.30;;
31680;SDS011;18281;51.364;9.566;2023-05-23T04:54:47;7.40;;;5.07;;
31680;SDS011;18281;51.364;9.566;2023-05-23T04:57:12;5.72;;;5.22;;
31680;SDS011;18281;51.364;9.566;2023-05-23T04:59:38;5.72;;;5.13;;
31680;SDS011;18281;51.364;9.566;2023-05-23T05:02:03;5.35;;;4.80;;
31680;SDS011;18281;51.364;9.566;2023-05-23T05:04:30;6.32;;;4.85;;
31680;SDS011;18281;51.364;9.566;2023-05-23T05:06:55;5.18;;;4.53;;
31680;SDS011;18281;51.364;9.566;2023-05-23T05:09:21;5.78;;;4.88;;
31680;SDS011;18281;51.364;9.566;2023-05-23T05:11:46;4.32;;;3.92;;
31680;SDS011;18281;51.364;9.566;2023-05-23T05:14:12;5.32;;;4.68;;
31680;SDS011;18281;51.364;9.566;2023-05-23T05:16:37;4.47;;;3.95;;
31680;SDS011;18281;51.364;9.566;2023-05-23T05:19:03;5.13;;;4.15;;
31680;SDS011;18281;51.364;9.566;2023-05-23T05:21:28;5.28;;;4.20;;
31680;SDS011;18281;51.364;9.566;2023-05-23T05:23:53;6.07;;;4.60;;
31680;SDS011;18281;51.364;9.566;2023-05-23T05:26:19;6.15;;;4.63;;
31680;SDS011;18281;51.364;9.566;2023-05-23T05:28:44;4.90;;;4.40;;
31680;SDS011;18281;51.364;9.566;2023-05-23T05:31:09;6.15;;;5.00;;
31680;SDS011;18281;51.364;9.566;2023-05-23T05:33:39;4.28;;;3.88;;
31680;SDS011;18281;51.364;9.566;2023-05-23T05:36:05;4.63;;;4.13;;
31680;SDS011;18281;51.364;9.566;2023-05-23T05:38:31;4.85;;;4.38;;
31680;SDS011;18281;51.364;9.566;2023-05-23T05:40:56;4.90;;;4.47;;
31680;SDS011;18281;51.364;9.566;2023-05-23T05:43:22;5.05;;;4.05;;
31680;SDS011;18281;51.364;9.566;2023-05-23T05:45:47;4.40;;;4.00;;
31680;SDS011;18281;51.364;9.566;2023-05-23T05:48:13;4.55;;;4.00;;
31680;SDS011;18281;51.364;9.566;2023-05-23T05:50:38;4.32;;;3.67;;
31680;SDS011;18281;51.364;9.566;2023-05-23T05:53:04;6.15;;;3.83;;
31680;SDS011;18281;51.364;9.566;2023-05-23T05:55:29;4.00;;;3.65;;
31680;SDS011;18281;51.364;9.566;2023-05-23T05:57:54;6.20;;;3.38;;
31680;SDS011;18281;51.364;9.566;2023-05-23T06:00:20;3.97;;;3.08;;
31680;SDS011;18281;51.364;9.566;2023-05-23T06:02:46;4.30;;;3.13;;
31680;SDS011;18281;51.364;9.566;2023-05-23T06:05:12;4.07;;;3.50;;
31680;SDS011;18281;51.364;9.566;2023-05-23T06:07:40;4.00;;;3.00;;
31680;SDS011;18281;51.364;9.566;2023-05-23T06:10:06;4.32;;;3.50;;
31680;SDS011;18281;51.364;9.566;2023-05-23T06:12:32;5.38;;;4.13;;
31680;SDS011;18281;51.364;9.566;2023-05-23T06:14:58;6.15;;;4.03;;
31680;SDS011;18281;51.364;9.566;2023-05-23T06:17:24;3.90;;;3.50;;
31680;SDS011;18281;51.364;9.566;2023-05-23T06:19:49;4.20;;;3.72;;
31680;SDS011;18281;51.364;9.566;2023-05-23T06:22:15;3.92;;;3.53;;
31680;SDS011;18281;51.364;9.566;2023-05-23T06:24:40;3.83;;;3.30;;
31680;SDS011;18281;51.364;9.566;2023-05-23T06:27:06;6.85;;;3.70;;
31680;SDS011;18281;51.364;9.566;2023-05-23T06:29:31;5.60;;;4.03;;
31680;SDS011;18281;51.364;9.566;2023-05-23T06:31:56;5.65;;;3.42;;
31680;SDS011;18281;51.364;9.566;2023-05-23T06:34:22;4.63;;;4.10;;
31680;SDS011;18281;51.364;9.566;2023-05-23T06:36:47;7.53;;;3.90;;
31680;SDS011;18281;51.364;9.566;2023-05-23T06:39:13;6.50;;;4.32;;
31680;SDS011;18281;51.364;9.566;2023-05-23T06:41:39;4.32;;;3.80;;
31680;SDS011;18281;51.364;9.566;2023-05-23T06:44:04;3.63;;;3.30;;
31680;SDS011;18281;51.364;9.566;2023-05-23T06:46:30;5.55;;;3.95;;
31680;SDS011;18281;51.364;9.566;2023-05-23T06:48:55;9.27;;;3.47;;
31680;SDS011;18281;51.364;9.566;2023-05-23T06:51:21;4.90;;;3.25;;
31680;SDS011;18281;51.364;9.566;2023-05-23T06:53:46;5.32;;;2.50;;
31680;SDS011;18281;51.364;9.566;2023-05-23T06:56:12;6.07;;;2.55;;
31680;SDS011;18281;51.364;9.566;2023-05-23T06:58:37;6.10;;;2.90;;
31680;SDS011;18281;51.364;9.566;2023-05-23T07:01:03;4.53;;;3.10;;
31680;SDS011;18281;51.364;9.566;2023-05-23T07:03:28;3.22;;;2.90;;
31680;SDS011;18281;51.364;9.566;2023-05-23T07:05:53;4.65;;;3.00;;
31680;SDS011;18281;51.364;9.566;2023-05-23T07:08:19;3.40;;;3.10;;
31680;SDS011;18281;51.364;9.566;2023-05-23T07:10:44;3.65;;;2.80;;
31680;SDS011;18281;51.364;9.566;2023-05-23T07:13:09;3.65;;;3.03;;
31680;SDS011;18281;51.364;9.566;2023-05-23T07:15:35;4.97;;;3.30;;
31680;SDS011;18281;51.364;9.566;2023-05-23T07:18:00;3.33;;;3.03;;
31680;SDS011;18281;51.364;9.566;2023-05-23T07:20:25;3.58;;;3.10;;
31680;SDS011;18281;51.364;9.566;2023-05-23T07:22:51;3.58;;;3.05;;
31680;SDS011;18281;51.364;9.566;2023-05-23T07:25:16;4.18;;;3.50;;
31680;SDS011;18281;51.364;9.566;2023-05-23T07:27:42;3.85;;;3.35;;
31680;SDS011;18281;51.364;9.566;2023-05-23T07:30:07;3.70;;;3.40;;
31680;SDS011;18281;51.364;9.566;2023-05-23T07:32:36;4.77;;;3.73;;
31680;SDS011;18281;51.364;9.566;2023-05-23T07:35:01;7.65;;;3.80;;
31680;SDS011;18281;51.364;9.566;2023-05-23T07:37:26;4.38;;;3.20;;
31680;SDS011;18281;51.364;9.566;2023-05-23T07:39:52;4.20;;;3.40;;
31680;SDS011;18281;51.364;9.566;2023-05-23T07:42:18;4.38;;;3.97;;
31680;SDS011;18281;51.364;9.566;2023-05-23T07:44:44;5.43;;;3.53;;
31680;SDS011;18281;51.364;9.566;2023-05-23T07:47:10;3.80;;;3.40;;
31680;SDS011;18281;51.364;9.566;2023-05-23T07:49:35;4.75;;;3.80;;
31680;SDS011;18281;51.364;9.566;2023-05-23T07:52:00;5.43;;;4.13;;
31680;SDS011;18281;51.364;9.566;2023-05-23T07:54:26;4.18;;;3.83;;
31680;SDS011;18281;51.364;9.566;2023-05-23T07:56:52;4.60;;;4.00;;
31680;SDS011;18281;51.364;9.566;2023-05-23T07:59:18;3.90;;;3.60;;
31680;SDS011;18281;51.364;9.566;2023-05-23T08:01:43;6.18;;;3.90;;
31680;SDS011;18281;51.364;9.566;2023-05-23T08:04:09;4.20;;;3.72;;
31680;SDS011;18281;51.364;9.566;2023-05-23T08:06:34;4.45;;;2.95;;
31680;SDS011;18281;51.364;9.566;2023-05-23T08:09:01;3.45;;;3.10;;
31680;SDS011;18281;51.364;9.566;2023-05-23T08:11:27;3.70;;;2.90;;
31680;SDS011;18281;51.364;9.566;2023-05-23T08:13:54;4.03;;;3.10;;
31680;SDS011;18281;51.364;9.566;2023-05-23T08:16:19;4.28;;;2.85;;
31680;SDS011;18281;51.364;9.566;2023-05-23T08:18:45;3.17;;;2.70;;
31680;SDS011;18281;51.364;9.566;2023-05-23T08:21:10;3.45;;;3.10;;
31680;SDS011;18281;51.364;9.566;2023-05-23T08:23:36;5.07;;;2.72;;
31680;SDS011;18281;51.364;9.566;2023-05-23T08:26:01;3.30;;;3.00;;
31680;SDS011;18281;51.364;9.566;2023-05-23T08:28:27;3.22;;;2.88;;
31680;SDS011;18281;51.364;9.566;2023-05-23T08:30:52;2.60;;;2.40;;
31680;SDS011;18281;51.364;9.566;2023-05-23T08:33:18;3.17;;;2.88;;
31680;SDS011;18281;51.364;9.566;2023-05-23T08:35:43;3.28;;;2.97;;
31680;SDS011;18281;51.364;9.566;2023-05-23T08:38:09;5.25;;;3.50;;
31680;SDS011;18281;51.364;9.566;2023-05-23T08:40:34;3.10;;;2.83;;
31680;SDS011;18281;51.364;9.566;2023-05-23T08:43:01;2.55;;;2.35;;
31680;SDS011;18281;51.364;9.566;2023-05-23T08:45:26;3.60;;;2.90;;
31680;SDS011;18281;51.364;9.566;2023-05-23T08:47:54;2.55;;;2.35;;
31680;SDS011;18281;51.364;9.566;2023-05-23T08:50:20;3.10;;;2.80;;
31680;SDS011;18281;51.364;9.566;2023-05-23T08:55:19;3.40;;;3.10;;
31680;SDS011;18281;51.364;9.566;2023-05-23T08:57:47;3.20;;;2.80;;
31680;SDS011;18281;51.364;9.566;2023-05-23T09:00:13;3.88;;;3.35;;
31680;SDS011;18281;51.364;9.566;2023-05-23T09:02:40;3.35;;;3.05;;
31680;SDS011;18281;51.364;9.566;2023-05-23T09:05:08;3.93;;;2.90;;
31680;SDS011;18281;51.364;9.566;2023-05-23T09:07:34;4.05;;;3.10;;
31680;SDS011;18281;51.364;9.566;2023-05-23T09:10:00;4.78;;;3.17;;
31680;SDS011;18281;51.364;9.566;2023-05-23T09:12:27;5.40;;;3.38;;
31680;SDS011;18281;51.364;9.566;2023-05-23T09:14:53;3.60;;;3.30;;
31680;SDS011;18281;51.364;9.566;2023-05-23T09:17:19;4.47;;;3.28;;
31680;SDS011;18281;51.364;9.566;2023-05-23T09:19:44;5.32;;;3.60;;
31680;SDS011;18281;51.364;9.566;2023-05-23T09:22:11;4.00;;;3.60;;
31680;SDS011;18281;51.364;9.566;2023-05-23T09:24:37;4.88;;;3.90;;
31680;SDS011;18281;51.364;9.566;2023-05-23T09:27:03;3.53;;;3.28;;
31680;SDS011;18281;51.364;9.566;2023-05-23T09:29:30;3.65;;;3.08;;
31680;SDS011;18281;51.364;9.566;2023-05-23T09:31:58;5.05;;;3.30;;
31680;SDS011;18281;51.364;9.566;2023-05-23T09:34:34;3.22;;;2.85;;
31680;SDS011;18281;51.364;9.566;2023-05-23T09:36:59;4.60;;;3.30;;
31680;SDS011;18281;51.364;9.566;2023-05-23T09:39:24;4.68;;;3.40;;
31680;SDS011;18281;51.364;9.566;2023-05-23T09:41:50;5.22;;;2.90;;
31680;SDS011;18281;51.364;9.566;2023-05-23T09:44:16;3.50;;;3.20;;
31680;SDS011;18281;51.364;9.566;2023-05-23T09:46:47;3.70;;;2.65;;
31680;SDS011;18281;51.364;9.566;2023-05-23T09:51:42;5.35;;;2.45;;
31680;SDS011;18281;51.364;9.566;2023-05-23T09:54:08;3.35;;;2.35;;
31680;SDS011;18281;51.364;9.566;2023-05-23T09:56:34;3.50;;;2.30;;
31680;SDS011;18281;51.364;9.566;2023-05-23T09:59:05;3.92;;;2.03;;
31680;SDS011;18281;51.364;9.566;2023-05-23T10:01:32;1.90;;;1.80;;
31680;SDS011;18281;51.364;9.566;2023-05-23T10:03:58;2.03;;;1.50;;
31680;SDS011;18281;51.364;9.566;2023-05-23T10:09:12;4.95;;;1.85;;
31680;SDS011;18281;51.364;9.566;2023-05-23T10:14:12;2.05;;;1.30;;
31680;SDS011;18281;51.364;9.566;2023-05-23T10:19:24;1.27;;;1.17;;
31680;SDS011;18281;51.364;9.566;2023-05-23T10:22:07;1.52;;;1.20;;
31680;SDS011;18281;51.364;9.566;2023-05-23T10:24:35;1.63;;;1.30;;
31680;SDS011;18281;51.364;9.566;2023-05-23T10:27:01;1.33;;;1.23;;
31680;SDS011;18281;51.364;9.566;2023-05-23T10:29:28;0.90;;;0.90;;
31680;SDS011;18281;51.364;9.566;2023-05-23T10:31:53;1.27;;;1.10;;
31680;SDS011;18281;51.364;9.566;2023-05-23T10:39:30;1.77;;;1.23;;
31680;SDS011;18281;51.364;9.566;2023-05-23T10:42:06;1.10;;;1.00;;
31680;SDS011;18281;51.364;9.566;2023-05-23T10:44:37;1.30;;;1.05;;
31680;SDS011;18281;51.364;9.566;2023-05-23T10:47:02;1.17;;;0.90;;
31680;SDS011;18281;51.364;9.566;2023-05-23T10:52:11;0.70;;;0.70;;
31680;SDS011;18281;51.364;9.566;2023-05-23T10:57:10;0.77;;;0.70;;
31680;SDS011;18281;51.364;9.566;2023-05-23T10:59:40;2.83;;;0.85;;
31680;SDS011;18281;51.364;9.566;2023-05-23T11:02:10;2.25;;;0.55;;
31680;SDS011;18281;51.364;9.566;2023-05-23T11:04:38;0.60;;;0.57;;
31680;SDS011;18281;51.364;9.566;2023-05-23T11:07:03;1.02;;;0.55;;
31680;SDS011;18281;51.364;9.566;2023-05-23T11:09:29;1.00;;;0.50;;
31680;SDS011;18281;51.364;9.566;2023-05-23T11:12:01;0.90;;;0.50;;
31680;SDS011;18281;51.364;9.566;2023-05-23T11:16:58;0.57;;;0.50;;
31680;SDS011;18281;51.364;9.566;2023-05-23T11:19:27;3.35;;;0.43;;
31680;SDS011;18281;51.364;9.566;2023-05-23T11:21:54;0.80;;;0.50;;
31680;SDS011;18281;51.364;9.566;2023-05-23T11:27:16;0.40;;;0.40;;
31680;SDS011;18281;51.364;9.566;2023-05-23T11:32:28;0.75;;;0.50;;
31680;SDS011;18281;51.364;9.566;2023-05-23T11:34:55;0.40;;;0.40;;
31680;SDS011;18281;51.364;9.566;2023-05-23T11:37:23;1.38;;;0.80;;
31680;SDS011;18281;51.364;9.566;2023-05-23T11:39:49;0.73;;;0.73;;
31680;SDS011;18281;51.364;9.566;2023-05-23T11:42:15;2.67;;;0.82;;
31680;SDS011;18281;51.364;9.566;2023-05-23T11:44:40;0.95;;;0.95;;
31680;SDS011;18281;51.364;9.566;2023-05-23T11:47:06;1.55;;;1.20;;
31680;SDS011;18281;51.364;9.566;2023-05-23T11:49:37;1.67;;;1.10;;
31680;SDS011;18281;51.364;9.566;2023-05-23T11:52:04;2.40;;;1.70;;
31680;SDS011;18281;51.364;9.566;2023-05-23T11:54:33;1.70;;;1.60;;
31680;SDS011;18281;51.364;9.566;2023-05-23T11:56:58;1.60;;;1.40;;
31680;SDS011;18281;51.364;9.566;2023-05-23T11:59:24;2.53;;;1.60;;
31680;SDS011;18281;51.364;9.566;2023-05-23T12:01:51;2.92;;;1.95;;
31680;SDS011;18281;51.364;9.566;2023-05-23T12:04:16;2.60;;;1.88;;
31680;SDS011;18281;51.364;9.566;2023-05-23T12:06:44;3.20;;;2.00;;
31680;SDS011;18281;51.364;9.566;2023-05-23T12:11:38;2.60;;;2.40;;
31680;SDS011;18281;51.364;9.566;2023-05-23T12:14:05;4.80;;;2.35;;
31680;SDS011;18281;51.364;9.566;2023-05-23T12:16:31;3.30;;;2.17;;
31680;SDS011;18281;51.364;9.566;2023-05-23T12:18:58;2.17;;;1.98;;
31680;SDS011;18281;51.364;9.566;2023-05-23T12:21:25;4.68;;;2.17;;
31680;SDS011;18281;51.364;9.566;2023-05-23T12:23:51;4.32;;;2.22;;
31680;SDS011;18281;51.364;9.566;2023-05-23T12:26:16;4.35;;;3.22;;
31680;SDS011;18281;51.364;9.566;2023-05-23T12:28:43;4.03;;;2.90;;
31680;SDS011;18281;51.364;9.566;2023-05-23T12:33:39;4.55;;;3.10;;
31680;SDS011;18281;51.364;9.566;2023-05-23T12:36:07;4.93;;;3.03;;
31680;SDS011;18281;51.364;9.566;2023-05-23T12:38:33;2.75;;;2.50;;
31680;SDS011;18281;51.364;9.566;2023-05-23T12:41:16;4.70;;;3.08;;
31680;SDS011;18281;51.364;9.566;2023-05-23T12:43:50;7.25;;;2.80;;
31680;SDS011;18281;51.364;9.566;2023-05-23T12:46:17;3.35;;;2.95;;
31680;SDS011;18281;51.364;9.566;2023-05-23T12:48:46;4.88;;;3.03;;
31680;SDS011;18281;51.364;9.566;2023-05-23T12:51:15;4.13;;;3.08;;
31680;SDS011;18281;51.364;9.566;2023-05-23T12:53:41;4.93;;;3.10;;
31680;SDS011;18281;51.364;9.566;2023-05-23T12:56:06;4.63;;;3.75;;
31680;SDS011;18281;51.364;9.566;2023-05-23T12:58:32;5.25;;;3.40;;
31680;SDS011;18281;51.364;9.566;2023-05-23T13:00:59;4.90;;;3.40;;
31680;SDS011;18281;51.364;9.566;2023-05-23T13:03:26;5.50;;;3.97;;
31680;SDS011;18281;51.364;9.566;2023-05-23T13:05:53;6.97;;;3.65;;
31680;SDS011;18281;51.364;9.566;2023-05-23T13:08:19;4.97;;;3.47;;
31680;SDS011;18281;51.364;9.566;2023-05-23T13:10:45;4.78;;;3.33;;
31680;SDS011;18281;51.364;9.566;2023-05-23T13:13:10;5.65;;;3.55;;
31680;SDS011;18281;51.364;9.566;2023-05-23T13:15:36;5.55;;;2.95;;
31680;SDS011;18281;51.364;9.566;2023-05-23T13:18:02;6.40;;;2.97;;
31680;SDS011;18281;51.364;9.566;2023-05-23T13:20:27;6.50;;;3.35;;
31680;SDS011;18281;51.364;9.566;2023-05-23T13:22:57;5.95;;;3.63;;
31680;SDS011;18281;51.364;9.566;2023-05-23T13:25:23;7.40;;;2.97;;
31680;SDS011;18281;51.364;9.566;2023-05-23T13:27:49;6.32;;;3.55;;
31680;SDS011;18281;51.364;9.566;2023-05-23T13:30:15;7.53;;;3.60;;
31680;SDS011;18281;51.364;9.566;2023-05-23T13:32:41;8.93;;;4.00;;
31680;SDS011;18281;51.364;9.566;2023-05-23T13:35:06;8.40;;;4.15;;
31680;SDS011;18281;51.364;9.566;2023-05-23T13:37:32;10.35;;;3.67;;
31680;SDS011;18281;51.364;9.566;2023-05-23T13:40:00;10.20;;;4.07;;
31680;SDS011;18281;51.364;9.566;2023-05-23T13:42:26;8.10;;;3.78;;
31680;SDS011;18281;51.364;9.566;2023-05-23T13:44:51;9.02;;;3.78;;
31680;SDS011;18281;51.364;9.566;2023-05-23T13:47:17;6.03;;;3.70;;
31680;SDS011;18281;51.364;9.566;2023-05-23T13:49:42;5.68;;;3.38;;
31680;SDS011;18281;51.364;9.566;2023-05-23T13:52:08;8.75;;;4.13;;
31680;SDS011;18281;51.364;9.566;2023-05-23T13:54:33;11.15;;;4.45;;
31680;SDS011;18281;51.364;9.566;2023-05-23T13:56:59;6.50;;;3.55;;
31680;SDS011;18281;51.364;9.566;2023-05-23T13:59:25;8.35;;;3.80;;
31680;SDS011;18281;51.364;9.566;2023-05-23T14:01:51;8.02;;;4.13;;
31680;SDS011;18281;51.364;9.566;2023-05-23T14:04:16;7.35;;;3.55;;
31680;SDS011;18281;51.364;9.566;2023-05-23T14:06:42;6.85;;;3.80;;
31680;SDS011;18281;51.364;9.566;2023-05-23T14:09:08;8.65;;;3.60;;
31680;SDS011;18281;51.364;9.566;2023-05-23T14:11:33;8.70;;;3.63;;
31680;SDS011;18281;51.364;9.566;2023-05-23T14:13:59;8.07;;;3.60;;
31680;SDS011;18281;51.364;9.566;2023-05-23T14:16:24;7.65;;;3.35;;
31680;SDS011;18281;51.364;9.566;2023-05-23T14:18:49;9.52;;;3.85;;
31680;SDS011;18281;51.364;9.566;2023-05-23T14:21:15;8.90;;;3.70;;
31680;SDS011;18281;51.364;9.566;2023-05-23T14:23:40;7.38;;;3.28;;
31680;SDS011;18281;51.364;9.566;2023-05-23T14:26:06;10.52;;;3.65;;
31680;SDS011;18281;51.364;9.566;2023-05-23T14:28:31;7.10;;;2.80;;
31680;SDS011;18281;51.364;9.566;2023-05-23T14:30:57;8.23;;;3.08;;
31680;SDS011;18281;51.364;9.566;2023-05-23T14:33:23;5.88;;;3.00;;
31680;SDS011;18281;51.364;9.566;2023-05-23T14:35:50;5.78;;;2.72;;
31680;SDS011;18281;51.364;9.566;2023-05-23T14:38:16;5.07;;;2.45;;
31680;SDS011;18281;51.364;9.566;2023-05-23T14:40:42;7.68;;;2.72;;
31680;SDS011;18281;51.364;9.566;2023-05-23T14:43:07;11.60;;;3.00;;
31680;SDS011;18281;51.364;9.566;2023-05-23T14:45:33;9.77;;;2.90;;
31680;SDS011;18281;51.364;9.566;2023-05-23T14:47:58;7.07;;;2.65;;
31680;SDS011;18281;51.364;9.566;2023-05-23T14:50:24;7.45;;;3.08;;
31680;SDS011;18281;51.364;9.566;2023-05-23T14:52:50;8.85;;;2.90;;
31680;SDS011;18281;51.364;9.566;2023-05-23T14:55:17;9.77;;;3.45;;
31680;SDS011;18281;51.364;9.566;2023-05-23T14:57:42;6.68;;;2.53;;
31680;SDS011;18281;51.364;9.566;2023-05-23T15:00:08;6.93;;;2.63;;
31680;SDS011;18281;51.364;9.566;2023-05-23T15:02:35;6.18;;;2.40;;
31680;SDS011;18281;51.364;9.566;2023-05-23T15:05:01;8.70;;;2.58;;
31680;SDS011;18281;51.364;9.566;2023-05-23T15:07:27;11.45;;;3.88;;
31680;SDS011;18281;51.364;9.566;2023-05-23T15:09:53;10.13;;;3.70;;
31680;SDS011;18281;51.364;9.566;2023-05-23T15:12:18;9.95;;;3.47;;
31680;SDS011;18281;51.364;9.566;2023-05-23T15:14:44;11.07;;;3.50;;
31680;SDS011;18281;51.364;9.566;2023-05-23T15:17:10;10.70;;;2.78;;
31680;SDS011;18281;51.364;9.566;2023-05-23T15:19:37;12.23;;;3.30;;
31680;SDS011;18281;51.364;9.566;2023-05-23T15:22:03;17.20;;;3.55;;